createdAt,value
2023-05-05T00:00:40.234Z,68.1
2023-05-05T00:01:53.572Z,68.4
2023-05-05T00:03:07.850Z,68.2
2023-05-05T00:04:22.264Z,68.1
2023-05-05T00:05:36.585Z,68.2
2023-05-05T00:06:50.869Z,68
2023-05-05T00:08:05.147Z,68.2
2023-05-05T00:09:19.561Z,68.6
2023-05-05T00:10:33.885Z,68.3
2023-05-05T00:11:48.168Z,68.1
2023-05-05T00:13:02.440Z,68.5
2023-05-05T00:14:16.863Z,68.3
2023-05-05T00:15:31.172Z,68.5
2023-05-05T00:16:45.459Z,68.1
2023-05-05T00:17:59.747Z,68.1
2023-05-05T00:19:14.150Z,68.1
2023-05-05T00:20:28.471Z,68.3
2023-05-05T00:21:42.748Z,68.1
2023-05-05T00:22:57.029Z,68
2023-05-05T00:24:11.440Z,68
2023-05-05T00:25:25.768Z,68.2
2023-05-05T00:26:40.038Z,68.3
2023-05-05T00:27:54.335Z,68.2
2023-05-05T00:29:08.741Z,67.9
2023-05-05T00:30:23.061Z,68.5
2023-05-05T00:31:37.339Z,68.7
2023-05-05T00:32:51.677Z,68.5
2023-05-05T00:34:06.082Z,68.4
2023-05-05T00:35:20.423Z,68.3
2023-05-05T00:36:33.778Z,68.5
2023-05-05T00:37:48.046Z,68.9
2023-05-05T00:39:02.460Z,68.7
2023-05-05T00:40:16.779Z,68.7
2023-05-05T00:41:31.059Z,69.1
2023-05-05T00:42:45.355Z,69.4
2023-05-05T00:43:59.752Z,68.9
2023-05-05T00:45:14.076Z,68.9
2023-05-05T00:46:28.352Z,69.5
2023-05-05T00:47:42.630Z,69.3
2023-05-05T00:48:57.044Z,69.5
2023-05-05T00:50:11.362Z,69.2
2023-05-05T00:51:25.768Z,69.1
2023-05-05T00:52:40.107Z,69.4
2023-05-05T00:53:54.380Z,69.4
2023-05-05T00:55:08.786Z,69.4
2023-05-05T00:56:23.117Z,69.2
2023-05-05T00:57:37.382Z,69.6
2023-05-05T00:58:51.672Z,69.9
2023-05-05T01:00:06.083Z,69.7
2023-05-05T01:01:20.404Z,69.7
2023-05-05T01:02:34.687Z,69.9
2023-05-05T01:03:48.958Z,70.2
2023-05-05T01:05:03.375Z,69.9
2023-05-05T01:06:17.696Z,70.3
2023-05-05T01:07:31.981Z,70
2023-05-05T01:08:46.259Z,70.6
2023-05-05T01:10:00.653Z,70
2023-05-05T01:11:14.979Z,69.9
2023-05-05T01:12:29.274Z,69.9
2023-05-05T01:13:43.541Z,70.4
2023-05-05T01:14:57.949Z,69.8
2023-05-05T01:16:12.284Z,69.8
2023-05-05T01:17:26.567Z,69.7
2023-05-05T01:18:40.834Z,69.9
2023-05-05T01:19:55.248Z,69.8
2023-05-05T01:21:09.572Z,69.9
2023-05-05T01:22:23.857Z,70.1
2023-05-05T01:23:38.130Z,70.2
2023-05-05T01:24:52.541Z,70
2023-05-05T01:26:06.860Z,70.1
2023-05-05T01:27:21.139Z,71
2023-05-05T01:28:35.417Z,70.8
2023-05-05T01:29:49.836Z,70.5
2023-05-05T01:31:04.153Z,70.8
2023-05-05T01:32:18.426Z,70.3
2023-05-05T01:33:32.717Z,70.5
2023-05-05T01:34:47.114Z,70.5
2023-05-05T01:36:01.434Z,70.5
2023-05-05T01:37:15.775Z,70.5
2023-05-05T01:38:29.177Z,71.4
2023-05-05T01:39:43.504Z,71.4
2023-05-05T01:40:56.854Z,71.6
2023-05-05T01:42:11.124Z,71.2
2023-05-05T01:43:25.550Z,71.6
2023-05-05T01:44:39.869Z,71.1
2023-05-05T01:45:54.141Z,71.6
2023-05-05T01:47:08.425Z,71.2
2023-05-05T01:48:22.839Z,71.1
2023-05-05T01:49:37.149Z,71.1
2023-05-05T01:50:51.436Z,71
2023-05-05T01:52:05.837Z,71.4
2023-05-05T01:53:20.250Z,71.3
2023-05-05T01:54:34.570Z,71.6
2023-05-05T01:55:48.840Z,71.2
2023-05-05T01:57:03.128Z,71.2
2023-05-05T01:58:17.536Z,71.3
2023-05-05T01:59:31.860Z,71
2023-05-05T02:00:46.136Z,71
2023-05-05T02:02:00.417Z,71.4
2023-05-05T02:03:14.833Z,71.1
2023-05-05T02:04:29.157Z,71.1
2023-05-05T02:05:43.434Z,71.2
2023-05-05T02:06:57.705Z,71.2
2023-05-05T02:08:12.000Z,71
2023-05-05T02:09:26.445Z,71.6
2023-05-05T02:10:40.721Z,71.7
2023-05-05T02:11:55.004Z,71.4
2023-05-05T02:13:09.405Z,71.6
2023-05-05T02:14:23.738Z,71.9
2023-05-05T02:15:38.006Z,71.7
2023-05-05T02:16:52.295Z,71.9
2023-05-05T02:18:06.696Z,71.9
2023-05-05T02:19:21.032Z,71.8
2023-05-05T02:20:35.296Z,71.9
2023-05-05T02:21:49.586Z,71.4
2023-05-05T02:23:03.987Z,71.5
2023-05-05T02:24:18.322Z,71.4
2023-05-05T02:25:32.593Z,71.2
2023-05-05T02:26:46.870Z,71.2
2023-05-05T02:28:01.284Z,71.4
2023-05-05T02:29:15.608Z,71.2
2023-05-05T02:30:29.880Z,71.1
2023-05-05T02:31:44.165Z,71
2023-05-05T02:32:58.566Z,71.4
2023-05-05T02:34:12.900Z,71.2
2023-05-05T02:35:27.182Z,71.2
2023-05-05T02:36:41.450Z,71.5
2023-05-05T02:37:55.919Z,71.7
2023-05-05T02:39:10.256Z,71.3
2023-05-05T02:40:23.677Z,71.6
2023-05-05T02:41:37.080Z,71.8
2023-05-05T02:42:51.391Z,71.6
2023-05-05T02:44:04.745Z,71.5
2023-05-05T02:45:19.025Z,71.6
2023-05-05T02:46:33.422Z,71.1
2023-05-05T02:47:47.762Z,71.2
2023-05-05T02:49:02.042Z,71.2
2023-05-05T02:50:16.304Z,71.2
2023-05-05T02:51:30.713Z,71.1
2023-05-05T02:52:45.038Z,71.6
2023-05-05T02:53:59.337Z,71.2
2023-05-05T02:55:13.615Z,71
2023-05-05T02:56:28.009Z,71.1
2023-05-05T02:57:42.344Z,71.3
2023-05-05T02:58:56.612Z,71.5
2023-05-05T03:00:10.906Z,71.4
2023-05-05T03:01:25.309Z,71.1
2023-05-05T03:02:39.625Z,71.6
2023-05-05T03:03:53.919Z,71.7
2023-05-05T03:05:08.192Z,71.4
2023-05-05T03:06:22.603Z,71.7
2023-05-05T03:07:36.888Z,71.6
2023-05-05T03:08:51.167Z,71.4
2023-05-05T03:10:05.463Z,71.4
2023-05-05T03:11:19.859Z,71.8
2023-05-05T03:12:34.193Z,71.7
2023-05-05T03:13:48.461Z,71.8
2023-05-05T03:15:02.747Z,71.6
2023-05-05T03:16:17.050Z,72.1
2023-05-05T03:17:31.326Z,71.5
2023-05-05T03:18:44.629Z,72.2
2023-05-05T03:19:58.861Z,72.1
2023-05-05T03:21:13.154Z,71.7
2023-05-05T03:22:27.404Z,71.7
2023-05-05T03:24:55.858Z,72.4
2023-05-05T03:26:10.196Z,72
2023-05-05T03:27:24.495Z,72
2023-05-05T03:28:38.730Z,71.9
2023-05-05T03:29:52.973Z,71.9
2023-05-05T03:31:07.195Z,71.8
2023-05-05T03:32:21.412Z,72.1
2023-05-05T03:33:35.726Z,72.3
2023-05-05T03:34:49.960Z,71.8
2023-05-05T03:36:04.182Z,72
2023-05-05T03:37:18.416Z,72.1
2023-05-05T03:38:32.638Z,72
2023-05-05T03:39:46.937Z,71.9
2023-05-05T03:41:01.185Z,72
2023-05-05T03:42:15.526Z,72.1
2023-05-05T03:43:29.760Z,71.8
2023-05-05T03:44:43.977Z,71.7
2023-05-05T03:45:58.277Z,71.9
2023-05-05T03:47:12.513Z,72.4
2023-05-05T03:48:26.752Z,72.1
2023-05-05T03:49:40.969Z,72.4
2023-05-05T03:50:55.188Z,72.2
2023-05-05T03:52:09.491Z,72.3
2023-05-05T03:53:23.740Z,72.1
2023-05-05T03:54:37.960Z,72.4
2023-05-05T03:55:52.198Z,72.5
2023-05-05T03:57:06.414Z,72.3
2023-05-05T03:58:20.719Z,72.1
2023-05-05T03:59:34.954Z,72.4
2023-05-05T04:00:49.178Z,72.5
2023-05-05T04:02:03.401Z,72.5
2023-05-05T04:03:17.640Z,72.5
2023-05-05T04:04:31.943Z,72.5
2023-05-05T04:05:46.175Z,72.9
2023-05-05T04:07:00.408Z,72.9
2023-05-05T04:08:14.632Z,72.9
2023-05-05T04:09:28.863Z,73
2023-05-05T04:10:43.158Z,73.1
2023-05-05T04:11:57.404Z,72.9
2023-05-05T04:13:11.616Z,72.5
2023-05-05T04:14:25.859Z,72.6
2023-05-05T04:15:40.071Z,72.8
2023-05-05T04:16:54.365Z,72.9
2023-05-05T04:18:08.613Z,72.6
2023-05-05T04:19:22.848Z,72.6
2023-05-05T04:20:37.063Z,72.5
2023-05-05T04:21:51.291Z,72.4
2023-05-05T04:23:05.602Z,72.3
2023-05-05T04:24:19.840Z,72.5
2023-05-05T04:25:34.056Z,73.4
2023-05-05T04:26:48.289Z,72.8
2023-05-05T04:28:02.567Z,72.5
2023-05-05T04:29:16.871Z,72.2
2023-05-05T04:30:31.163Z,72.6
2023-05-05T04:31:45.528Z,73.4
2023-05-05T04:32:59.742Z,72.7
2023-05-05T04:34:13.968Z,72.6
2023-05-05T04:35:28.282Z,72.3
2023-05-05T04:37:56.752Z,72.8
2023-05-05T04:39:10.969Z,73.1
2023-05-05T04:40:25.192Z,72.4
2023-05-05T04:41:39.497Z,72.4
2023-05-05T04:42:53.731Z,71.9
2023-05-05T04:44:07.959Z,72
2023-05-05T04:45:22.181Z,72.2
2023-05-05T04:46:36.424Z,72.1
2023-05-05T04:47:50.712Z,71.8
2023-05-05T04:49:04.962Z,71.7
2023-05-05T04:50:19.187Z,71.8
2023-05-05T04:51:33.407Z,71.7
2023-05-05T04:52:47.634Z,71.7
2023-05-05T04:55:16.175Z,71.9
2023-05-05T04:56:30.407Z,71.7
2023-05-05T04:57:44.629Z,72
2023-05-05T04:58:58.864Z,72.1
2023-05-05T05:00:13.156Z,74.5
2023-05-05T05:01:27.391Z,74.9
2023-05-05T05:02:41.687Z,74.9
2023-05-05T05:03:55.024Z,74.2
2023-05-05T05:05:09.321Z,75.4
2023-05-05T05:06:23.600Z,75
2023-05-05T05:07:37.897Z,75.1
2023-05-05T05:08:51.178Z,75
2023-05-05T05:10:05.479Z,74.8
2023-05-05T05:11:19.730Z,75.3
2023-05-05T05:12:33.944Z,74.8
2023-05-05T05:13:48.310Z,74.3
2023-05-05T05:15:02.525Z,73.8
2023-05-05T05:16:16.824Z,73.8
2023-05-05T05:17:31.072Z,73.8
2023-05-05T05:18:45.300Z,74.1
2023-05-05T05:19:59.519Z,73.5
2023-05-05T05:21:13.738Z,73.6
2023-05-05T05:22:28.053Z,73.6
2023-05-05T05:23:42.282Z,73.5
2023-05-05T05:24:56.516Z,73
2023-05-05T05:26:10.738Z,72.5
2023-05-05T05:27:24.965Z,72.6
2023-05-05T05:28:39.275Z,72.4
2023-05-05T05:29:53.502Z,72.3
2023-05-05T05:31:07.733Z,72.2
2023-05-05T05:32:21.950Z,72.2
2023-05-05T05:33:36.188Z,72.4
2023-05-05T05:34:50.485Z,72.3
2023-05-05T05:36:04.735Z,72.3
2023-05-05T05:37:18.962Z,72.5
2023-05-05T05:38:33.190Z,72.4
2023-05-05T05:39:47.398Z,72.6
2023-05-05T05:41:01.711Z,73
2023-05-05T05:42:15.948Z,73.1
2023-05-05T05:43:30.171Z,73.3
2023-05-05T05:44:44.400Z,73.2
2023-05-05T05:45:58.623Z,73.3
2023-05-05T05:47:12.939Z,73.1
2023-05-05T05:48:27.175Z,73
2023-05-05T05:49:41.394Z,72.5
2023-05-05T05:50:55.632Z,72.5
2023-05-05T05:52:09.844Z,71.9
2023-05-05T05:53:24.146Z,71.4
2023-05-05T05:54:38.386Z,71.6
2023-05-05T05:55:52.619Z,71
2023-05-05T05:57:06.845Z,71.1
2023-05-05T05:58:21.060Z,70.7
2023-05-05T05:59:35.423Z,71.7
2023-05-05T06:00:49.720Z,72.7
2023-05-05T06:02:02.997Z,73.4
2023-05-05T06:03:17.239Z,73
2023-05-05T06:04:31.525Z,73
2023-05-05T06:05:45.774Z,73.3
2023-05-05T06:07:00.005Z,72.4
2023-05-05T06:08:14.231Z,72.2
2023-05-05T06:09:28.579Z,72.5
2023-05-05T06:10:42.883Z,72.3
2023-05-05T06:11:57.125Z,72.7
2023-05-05T06:13:11.345Z,72.8
2023-05-05T06:14:25.578Z,72.4
2023-05-05T06:15:39.798Z,72.4
2023-05-05T06:16:54.086Z,72.6
2023-05-05T06:18:08.347Z,72.7
2023-05-05T06:19:22.560Z,72.4
2023-05-05T06:20:36.784Z,72.1
2023-05-05T06:21:51.016Z,72.2
2023-05-05T06:23:05.321Z,71.7
2023-05-05T06:24:19.562Z,71.5
2023-05-05T06:25:33.773Z,71.4
2023-05-05T06:26:48.010Z,70.9
2023-05-05T06:28:02.235Z,70.5
2023-05-05T06:29:16.526Z,70.4
2023-05-05T06:30:30.778Z,70.5
2023-05-05T06:31:45.001Z,71
2023-05-05T06:32:59.238Z,70.9
2023-05-05T06:34:13.453Z,71.2
2023-05-05T06:35:27.752Z,71.7
2023-05-05T06:36:41.992Z,72.4
2023-05-05T06:37:56.231Z,72.2
2023-05-05T06:39:10.450Z,72.3
2023-05-05T06:40:24.681Z,72.5
2023-05-05T06:41:38.973Z,72.6
2023-05-05T06:42:53.209Z,72.6
2023-05-05T06:44:07.452Z,72.1
2023-05-05T06:45:21.681Z,71.7
2023-05-05T06:46:35.889Z,71.2
2023-05-05T06:47:50.203Z,71.2
2023-05-05T06:49:04.437Z,71.5
2023-05-05T06:50:18.667Z,71.5
2023-05-05T06:51:32.889Z,71.1
2023-05-05T06:52:47.121Z,70.5
2023-05-05T06:54:01.416Z,70.7
2023-05-05T06:55:15.715Z,70.7
2023-05-05T06:56:29.050Z,70.9
2023-05-05T06:57:43.341Z,70.3
2023-05-05T06:58:57.639Z,70.1
2023-05-05T07:00:11.910Z,68.2
2023-05-05T07:01:26.211Z,68.3
2023-05-05T07:02:39.492Z,68.2
2023-05-05T07:03:53.788Z,68.4
2023-05-05T07:05:08.047Z,68.1
2023-05-05T07:06:22.259Z,68.8
2023-05-05T07:07:36.483Z,69.3
2023-05-05T07:08:50.712Z,69.7
2023-05-05T07:11:19.254Z,69.5
2023-05-05T07:12:33.490Z,69.3
2023-05-05T07:13:47.706Z,69.5
2023-05-05T07:15:01.937Z,70.1
2023-05-05T07:16:16.240Z,70.2
2023-05-05T07:17:30.480Z,69.8
2023-05-05T07:18:44.707Z,69.8
2023-05-05T07:19:58.931Z,70.3
2023-05-05T07:21:13.160Z,70.1
2023-05-05T07:22:27.447Z,69.2
2023-05-05T07:23:41.692Z,69.5
2023-05-05T07:24:55.925Z,68.9
2023-05-05T07:26:10.160Z,67.8
2023-05-05T07:27:24.371Z,66.8
2023-05-05T07:28:38.677Z,66.9
2023-05-05T07:29:52.909Z,67.4
2023-05-05T07:31:07.150Z,66.7
2023-05-05T07:32:21.368Z,65.6
2023-05-05T07:33:35.666Z,65.3
2023-05-05T07:34:49.960Z,64
2023-05-05T07:36:04.228Z,63.7
2023-05-05T07:37:17.540Z,62.6
2023-05-05T07:38:31.752Z,61.5
2023-05-05T07:39:46.061Z,61.4
2023-05-05T07:41:00.291Z,63.1
2023-05-05T07:42:14.530Z,62.2
2023-05-05T07:43:28.747Z,62.8
2023-05-05T07:44:42.977Z,63.4
2023-05-05T07:45:57.285Z,63.9
2023-05-05T07:47:11.522Z,63.1
2023-05-05T07:48:25.739Z,62.8
2023-05-05T07:49:39.979Z,63.1
2023-05-05T07:50:54.201Z,63.6
2023-05-05T07:52:08.509Z,63.7
2023-05-05T07:53:22.745Z,63
2023-05-05T07:54:36.964Z,61.9
2023-05-05T07:55:51.203Z,60.8
2023-05-05T07:57:05.420Z,60.9
2023-05-05T07:58:19.714Z,60.8
2023-05-05T07:59:33.955Z,61
2023-05-05T08:00:48.194Z,61.5
2023-05-05T08:03:16.647Z,60.8
2023-05-05T08:04:30.946Z,59.2
2023-05-05T08:05:45.184Z,59.2
2023-05-05T08:06:59.402Z,60.4
2023-05-05T08:08:13.693Z,60.3
2023-05-05T08:09:27.020Z,59.9
2023-05-05T08:10:41.320Z,60.3
2023-05-05T08:11:54.605Z,60.5
2023-05-05T08:13:08.832Z,61.5
2023-05-05T08:14:23.127Z,60.1
2023-05-05T08:15:37.371Z,59.7
2023-05-05T08:16:51.601Z,59.5
2023-05-05T08:18:05.825Z,57
2023-05-05T08:19:20.054Z,55
2023-05-05T08:20:34.359Z,54.6
2023-05-05T08:21:48.603Z,54.9
2023-05-05T08:23:02.832Z,54.8
2023-05-05T08:24:17.050Z,55.3
2023-05-05T08:25:31.267Z,53.6
2023-05-05T08:26:45.586Z,53.6
2023-05-05T08:27:59.821Z,51.9
2023-05-05T08:29:14.041Z,52.1
2023-05-05T08:30:28.261Z,51.8
2023-05-05T08:31:42.492Z,50.3
2023-05-05T08:32:56.794Z,50.8
2023-05-05T08:34:11.045Z,51.4
2023-05-05T08:35:25.274Z,54.5
2023-05-05T08:36:39.501Z,53.8
2023-05-05T08:37:53.713Z,53.3
2023-05-05T08:39:08.018Z,53.4
2023-05-05T08:40:22.269Z,54.3
2023-05-05T08:41:36.481Z,53.9
2023-05-05T08:42:50.770Z,52.4
2023-05-05T08:44:04.112Z,53.5
2023-05-05T08:45:18.388Z,53.4
2023-05-05T08:46:31.676Z,52.3
2023-05-05T08:49:00.207Z,51.9
2023-05-05T08:50:14.462Z,50.8
2023-05-05T08:51:28.684Z,51.6
2023-05-05T08:52:42.913Z,52.7
2023-05-05T08:53:57.138Z,52.1
2023-05-05T08:55:11.441Z,51.3
2023-05-05T08:56:25.673Z,51.8
2023-05-05T08:57:39.908Z,51.9
2023-05-05T08:58:54.133Z,52.1
2023-05-05T09:01:22.663Z,49.8
2023-05-05T09:02:36.903Z,48.8
2023-05-05T09:03:51.130Z,47.8
2023-05-05T09:06:19.574Z,47
2023-05-05T09:07:33.886Z,47.8
2023-05-05T09:08:48.126Z,47.4
2023-05-05T09:10:02.360Z,47.3
2023-05-05T09:11:16.571Z,48.5
2023-05-05T09:12:30.803Z,48.8
2023-05-05T09:13:45.116Z,49.9
2023-05-05T09:14:59.356Z,47.5
2023-05-05T09:16:13.574Z,46.8
2023-05-05T09:17:27.869Z,46.9
2023-05-05T09:18:41.156Z,48
2023-05-05T09:19:55.390Z,48.9
2023-05-05T09:21:09.632Z,49.3
2023-05-05T09:22:23.851Z,50.1
2023-05-05T09:23:38.078Z,48.3
2023-05-05T09:24:52.390Z,48.1
2023-05-05T09:26:06.615Z,47.5
2023-05-05T09:27:20.853Z,49.8
2023-05-05T09:28:35.071Z,51.7
2023-05-05T09:29:49.306Z,48.4
2023-05-05T09:31:03.603Z,46.9
2023-05-05T09:32:17.842Z,45.1
2023-05-05T09:33:32.065Z,44.3
2023-05-05T09:34:46.295Z,44.7
2023-05-05T09:36:00.527Z,42.6
2023-05-05T09:37:14.838Z,41.8
2023-05-05T09:39:43.307Z,44.2
2023-05-05T09:42:11.761Z,45.9
2023-05-05T09:43:26.061Z,46.3
2023-05-05T09:44:40.294Z,44.9
2023-05-05T09:45:54.525Z,45.9
2023-05-05T09:47:08.751Z,46.3
2023-05-05T09:48:22.982Z,47.2
2023-05-05T09:49:37.330Z,45.7
2023-05-05T09:50:51.617Z,44.7
2023-05-05T09:52:04.910Z,46
2023-05-05T09:53:19.143Z,46.9
2023-05-05T09:54:33.455Z,47.4
2023-05-05T09:55:47.700Z,50.7
2023-05-05T09:57:01.919Z,48.6
2023-05-05T09:58:16.152Z,47.5
2023-05-05T09:59:30.370Z,46.7
2023-05-05T10:00:44.678Z,44.9
2023-05-05T10:01:58.927Z,45
2023-05-05T10:03:13.142Z,45.5
2023-05-05T10:04:27.380Z,44.8
2023-05-05T10:05:41.595Z,46
2023-05-05T10:06:55.892Z,45.8
2023-05-05T10:08:10.148Z,44.9
2023-05-05T10:09:24.380Z,44.6
2023-05-05T10:10:38.600Z,45.1
2023-05-05T10:11:52.823Z,45
2023-05-05T10:13:07.119Z,45.1
2023-05-05T10:14:21.378Z,45.7
2023-05-05T10:15:35.597Z,46
2023-05-05T10:16:49.833Z,44.4
2023-05-05T10:18:04.058Z,44.1
2023-05-05T10:19:18.348Z,43.3
2023-05-05T10:20:32.599Z,43.1
2023-05-05T10:21:46.830Z,45.5
2023-05-05T10:23:01.104Z,46.3
2023-05-05T10:24:14.454Z,46.5
2023-05-05T10:25:28.726Z,48.7
2023-05-05T10:26:42.024Z,49.1
2023-05-05T10:27:56.259Z,47.7
2023-05-05T10:29:10.558Z,48.6
2023-05-05T10:30:24.792Z,46.9
2023-05-05T10:31:39.032Z,46
2023-05-05T10:32:53.376Z,48
2023-05-05T10:35:21.907Z,46.5
2023-05-05T10:36:36.145Z,45.3
2023-05-05T10:37:50.368Z,46
2023-05-05T10:39:04.613Z,46.4
2023-05-05T10:40:18.837Z,45.4
2023-05-05T10:41:33.141Z,46.1
2023-05-05T10:42:47.368Z,45.2
2023-05-05T10:44:01.609Z,44.9
2023-05-05T10:45:15.829Z,44.7
2023-05-05T10:46:30.053Z,45.7
2023-05-05T10:47:44.358Z,45.5
2023-05-05T10:48:58.599Z,46.1
2023-05-05T10:50:12.832Z,45
2023-05-05T10:51:27.061Z,44.2
2023-05-05T10:52:41.418Z,45.5
2023-05-05T10:53:55.704Z,42.5
2023-05-05T10:55:09.951Z,41.9
2023-05-05T10:56:24.179Z,42.2
2023-05-05T10:57:38.548Z,41.3
2023-05-05T10:58:52.904Z,41.2
2023-05-05T11:00:07.204Z,40.5
2023-05-05T11:01:21.443Z,41.7
2023-05-05T11:02:35.679Z,40.9
2023-05-05T11:03:49.903Z,40.1
2023-05-05T11:05:04.129Z,40.4
2023-05-05T11:06:18.430Z,40.8
2023-05-05T11:07:32.671Z,39.5
2023-05-05T11:08:46.909Z,40.1
2023-05-05T11:10:01.146Z,42.2
2023-05-05T11:11:15.362Z,41.2
2023-05-05T11:12:29.675Z,41
2023-05-05T11:13:43.906Z,42.9
2023-05-05T11:14:58.143Z,42
2023-05-05T11:16:12.364Z,41.8
2023-05-05T11:17:26.590Z,41.1
2023-05-05T11:18:40.898Z,40.8
2023-05-05T11:19:55.140Z,43.9
2023-05-05T11:21:09.379Z,44.8
2023-05-05T11:22:23.598Z,47.3
2023-05-05T11:23:37.827Z,47.9
2023-05-05T11:24:52.126Z,48.2
2023-05-05T11:26:06.375Z,48.3
2023-05-05T11:27:20.596Z,48.6
2023-05-05T11:28:34.825Z,50.4
2023-05-05T11:29:49.050Z,49.9
2023-05-05T11:31:03.362Z,50
2023-05-05T11:32:17.598Z,45.7
2023-05-05T11:33:31.830Z,45.9
2023-05-05T11:34:46.054Z,45.1
2023-05-05T11:36:00.288Z,45.2
2023-05-05T11:37:14.574Z,45.6
2023-05-05T11:38:28.826Z,46.4
2023-05-05T11:39:43.203Z,46.8
2023-05-05T11:40:57.423Z,47.1
2023-05-05T11:42:11.654Z,48.7
2023-05-05T11:44:40.192Z,49.4
2023-05-05T11:45:54.432Z,48.9
2023-05-05T11:47:08.799Z,45.2
2023-05-05T11:48:23.028Z,45.8
2023-05-05T11:49:37.331Z,45
2023-05-05T11:50:51.565Z,45.2
2023-05-05T11:52:05.800Z,46.4
2023-05-05T11:53:20.022Z,47.9
2023-05-05T11:54:34.254Z,48.7
2023-05-05T11:55:48.540Z,49.1
2023-05-05T11:57:02.791Z,50
2023-05-05T11:58:17.007Z,48.4
2023-05-05T11:59:31.243Z,48.1
2023-05-05T12:00:45.463Z,45.8
2023-05-05T12:01:59.763Z,46.8
2023-05-05T12:03:14.009Z,45
2023-05-05T12:04:28.243Z,44.9
2023-05-05T12:05:42.468Z,44.4
2023-05-05T12:06:56.811Z,45.7
2023-05-05T12:08:11.120Z,45.5
2023-05-05T12:09:25.369Z,44.2
2023-05-05T12:10:39.580Z,44.3
2023-05-05T12:11:53.815Z,43.6
2023-05-05T12:13:08.036Z,44.5
2023-05-05T12:14:22.338Z,44.1
2023-05-05T12:15:36.575Z,45.1
2023-05-05T12:16:50.957Z,46
2023-05-05T12:18:05.182Z,48.5
2023-05-05T12:19:19.400Z,48
2023-05-05T12:20:33.701Z,48.7
2023-05-05T12:21:47.947Z,49
2023-05-05T12:24:16.401Z,51.2
2023-05-05T12:25:30.628Z,51
2023-05-05T12:26:44.935Z,50.2
2023-05-05T12:27:59.183Z,50.1
2023-05-05T12:29:13.547Z,50.7
2023-05-05T12:30:27.770Z,49.2
2023-05-05T12:31:42.128Z,48.5
2023-05-05T12:32:56.428Z,47.5
2023-05-05T12:34:10.665Z,48
2023-05-05T12:35:24.893Z,47
2023-05-05T12:36:39.127Z,48.5
2023-05-05T12:37:53.354Z,48.1
2023-05-05T12:39:07.649Z,48.7
2023-05-05T12:40:21.884Z,49.4
2023-05-05T12:41:36.112Z,49
2023-05-05T12:42:50.331Z,48.4
2023-05-05T12:44:04.557Z,49.8
2023-05-05T12:45:18.877Z,49.9
2023-05-05T12:46:33.114Z,49.6
2023-05-05T12:47:47.340Z,50.1
2023-05-05T12:49:01.686Z,49.6
2023-05-05T12:50:15.916Z,50
2023-05-05T12:51:30.224Z,49
2023-05-05T12:52:44.463Z,48.3
2023-05-05T12:53:58.688Z,47.8
2023-05-05T12:55:12.914Z,48.6
2023-05-05T12:56:27.141Z,50.4
2023-05-05T12:57:41.439Z,50.5
2023-05-05T12:58:55.681Z,50.5
2023-05-05T13:00:09.910Z,48.7
2023-05-05T13:01:24.272Z,48.4
2023-05-05T13:02:38.493Z,48.6
2023-05-05T13:03:52.792Z,48.6
2023-05-05T13:05:07.049Z,48.1
2023-05-05T13:06:21.413Z,48.3
2023-05-05T13:07:35.769Z,48.9
2023-05-05T13:08:49.989Z,48
2023-05-05T13:10:04.281Z,48.2
2023-05-05T13:11:18.526Z,49.5
2023-05-05T13:12:32.756Z,49.9
2023-05-05T13:13:46.984Z,48.2
2023-05-05T13:15:01.211Z,49.3
2023-05-05T13:16:15.512Z,50.2
2023-05-05T13:17:29.753Z,50.4
2023-05-05T13:18:43.987Z,50.3
2023-05-05T13:19:58.202Z,49.7
2023-05-05T13:21:12.442Z,50
2023-05-05T13:22:26.741Z,49.7
2023-05-05T13:23:40.974Z,51.3
2023-05-05T13:24:55.205Z,50.5
2023-05-05T13:26:09.431Z,50.8
2023-05-05T13:27:23.658Z,50.8
2023-05-05T13:28:37.948Z,51.7
2023-05-05T13:29:52.200Z,51.6
2023-05-05T13:31:06.418Z,52.6
2023-05-05T13:33:34.876Z,52.1
2023-05-05T13:34:49.186Z,52.6
2023-05-05T13:36:03.411Z,52.2
2023-05-05T13:37:17.652Z,53.6
2023-05-05T13:38:31.875Z,53.4
2023-05-05T13:39:46.098Z,53.3
2023-05-05T13:41:00.408Z,52.6
2023-05-05T13:42:14.632Z,53.3
2023-05-05T13:43:28.868Z,52.2
2023-05-05T13:44:43.083Z,52.1
2023-05-05T13:45:57.309Z,52.4
2023-05-05T13:47:11.623Z,52.6
2023-05-05T13:48:25.861Z,53
2023-05-05T13:49:40.085Z,53.8
2023-05-05T13:52:08.544Z,56.1
2023-05-05T13:53:22.904Z,55.5
2023-05-05T13:54:37.169Z,55.7
2023-05-05T13:55:50.486Z,57.1
2023-05-05T13:57:04.704Z,57.2
2023-05-05T13:58:18.999Z,57.1
2023-05-05T13:59:33.255Z,63.9
2023-05-05T14:02:01.691Z,64.1
2023-05-05T14:03:16.054Z,61.3
2023-05-05T14:04:30.355Z,64.5
2023-05-05T14:05:44.584Z,69.2
2023-05-05T14:06:58.827Z,72.3
2023-05-05T14:08:13.050Z,72.2
2023-05-05T14:09:27.264Z,78.3
2023-05-05T14:10:41.578Z,85.7
2023-05-05T14:11:55.817Z,87.2
2023-05-05T14:13:10.037Z,91.6
2023-05-05T14:14:24.273Z,92.7
2023-05-05T14:15:38.495Z,94.1
2023-05-05T14:16:52.796Z,95.2
2023-05-05T14:18:07.023Z,97.6
2023-05-05T14:19:21.259Z,98.7
2023-05-05T14:20:35.477Z,99
2023-05-05T14:21:49.705Z,98.9
2023-05-05T14:23:04.007Z,96.9
2023-05-05T14:24:18.258Z,96.4
2023-05-05T14:25:32.632Z,97.7
2023-05-05T14:26:46.845Z,98.4
2023-05-05T14:28:01.073Z,99.3
2023-05-05T14:29:15.367Z,96.3
2023-05-05T14:30:29.621Z,96.7
2023-05-05T14:31:43.854Z,98.1
2023-05-05T14:32:58.067Z,99.1
2023-05-05T14:34:12.304Z,100
2023-05-05T14:35:26.600Z,100
2023-05-05T14:36:40.834Z,100
2023-05-05T14:37:55.195Z,99.8
2023-05-05T14:39:09.415Z,99.6
2023-05-05T14:40:23.634Z,99.3
2023-05-05T14:41:37.946Z,98.7
2023-05-05T14:42:52.188Z,97.8
2023-05-05T14:44:06.416Z,98.3
2023-05-05T14:45:20.633Z,99.4
2023-05-05T14:46:34.870Z,99
2023-05-05T14:47:49.155Z,97.1
2023-05-05T14:49:03.396Z,96.8
2023-05-05T14:50:17.638Z,96.8
2023-05-05T14:51:31.857Z,97.3
2023-05-05T14:52:46.076Z,97.7
2023-05-05T14:54:00.384Z,97.7
2023-05-05T14:55:14.625Z,97.5
2023-05-05T14:56:28.849Z,97.8
2023-05-05T14:57:43.220Z,97.8
2023-05-05T14:58:57.442Z,97.6
2023-05-05T15:00:11.740Z,97.7
2023-05-05T15:01:25.995Z,97.6
2023-05-05T15:02:40.215Z,98
2023-05-05T15:03:54.430Z,97.5
2023-05-05T15:05:08.667Z,97.1
2023-05-05T15:06:22.976Z,96.3
2023-05-05T15:07:37.203Z,96.7
2023-05-05T15:08:51.430Z,96.9
2023-05-05T15:10:05.781Z,97.1
2023-05-05T15:11:20.016Z,96.4
2023-05-05T15:12:34.309Z,96
2023-05-05T15:13:48.546Z,96.2
2023-05-05T15:15:02.781Z,96.2
2023-05-05T15:16:17.004Z,96.6
2023-05-05T15:17:31.220Z,96.5
2023-05-05T15:18:45.525Z,96.3
2023-05-05T15:19:59.777Z,96.8
2023-05-05T15:21:13.997Z,95.7
2023-05-05T15:22:28.230Z,96.4
2023-05-05T15:23:42.459Z,96.6
2023-05-05T15:24:56.745Z,96.4
2023-05-05T15:26:10.990Z,96.9
2023-05-05T15:27:25.219Z,96.9
2023-05-05T15:28:39.445Z,97.5
2023-05-05T15:29:53.666Z,97.2
2023-05-05T15:31:07.968Z,96.2
2023-05-05T15:32:22.210Z,97
2023-05-05T15:33:36.588Z,97
2023-05-05T15:34:50.806Z,97.2
2023-05-05T15:36:05.036Z,97.8
2023-05-05T15:37:19.342Z,97.8
2023-05-05T15:38:33.574Z,97.7
2023-05-05T15:39:47.795Z,97.6
2023-05-05T15:41:02.030Z,97.2
2023-05-05T15:42:16.259Z,97.6
2023-05-05T15:43:30.546Z,97.5
2023-05-05T15:44:44.799Z,97.1
2023-05-05T15:45:59.028Z,97.5
2023-05-05T15:47:13.254Z,97.1
2023-05-05T15:48:27.476Z,96.9
2023-05-05T15:49:41.772Z,96.4
2023-05-05T15:50:56.010Z,96.4
2023-05-05T15:52:10.248Z,96
2023-05-05T15:53:24.472Z,95.7
2023-05-05T15:54:38.694Z,96.1
2023-05-05T15:55:53.000Z,96.4
2023-05-05T15:58:21.457Z,94.7
2023-05-05T15:59:35.693Z,94.3
2023-05-05T16:00:49.916Z,94.9
2023-05-05T16:02:04.208Z,95.2
2023-05-05T16:03:18.448Z,95.6
2023-05-05T16:04:32.746Z,95.3
2023-05-05T16:05:46.083Z,95.2
2023-05-05T16:07:00.381Z,95
2023-05-05T16:08:14.658Z,93.7
2023-05-05T16:09:28.939Z,94
2023-05-05T16:10:43.230Z,93.7
2023-05-05T16:11:57.513Z,93.1
2023-05-05T16:13:11.807Z,93.1
2023-05-05T16:14:26.089Z,93
2023-05-05T16:15:39.391Z,93.4
2023-05-05T16:16:53.603Z,92.5
2023-05-05T16:18:07.904Z,93.2
2023-05-05T16:19:22.153Z,92.7
2023-05-05T16:20:36.380Z,92.1
2023-05-05T16:21:50.613Z,92.6
2023-05-05T16:23:04.839Z,93.4
2023-05-05T16:24:19.127Z,93.8
2023-05-05T16:25:33.365Z,93.2
2023-05-05T16:26:47.603Z,93.2
2023-05-05T16:28:01.826Z,93.5
2023-05-05T16:29:16.049Z,94.5
2023-05-05T16:30:30.362Z,94.9
2023-05-05T16:31:44.600Z,95.5
2023-05-05T16:32:58.813Z,96
2023-05-05T16:34:13.043Z,95.4
2023-05-05T16:35:27.276Z,94.5
2023-05-05T16:36:41.582Z,94.4
2023-05-05T16:37:55.808Z,94.5
2023-05-05T16:39:10.049Z,94.9
2023-05-05T16:40:24.277Z,93.8
2023-05-05T16:41:38.495Z,94.5
2023-05-05T16:42:52.799Z,94
2023-05-05T16:44:07.030Z,93.5
2023-05-05T16:45:21.263Z,94.3
2023-05-05T16:46:35.549Z,95.8
2023-05-05T16:47:48.832Z,96.6
2023-05-05T16:49:03.084Z,97.1
2023-05-05T16:50:17.317Z,97.4
2023-05-05T16:51:31.000Z,97.6
2023-05-05T16:52:45.755Z,97.9
2023-05-05T16:54:00.070Z,97.6
2023-05-05T16:55:14.308Z,97.7